createdAt,value
2018-08-19T00:00:51.903Z,24.67
2018-08-19T00:03:20.810Z,24.79
2018-08-19T00:05:49.893Z,24.95
2018-08-19T00:08:18.838Z,24.98
2018-08-19T00:11:06.164Z,24.95
2018-08-19T00:13:35.942Z,24.91
2018-08-19T00:16:04.996Z,25.03
2018-08-19T00:18:35.405Z,24.90
2018-08-19T00:21:07.641Z,24.99
2018-08-19T00:23:41.733Z,25.22
2018-08-19T00:26:10.605Z,25.29
2018-08-19T00:28:39.408Z,25.35
2018-08-19T00:31:08.268Z,25.38
2018-08-19T00:33:37.209Z,25.41
2018-08-19T00:36:25.799Z,25.39
2018-08-19T00:38:55.181Z,25.43
2018-08-19T00:41:24.017Z,25.49
2018-08-19T00:43:52.839Z,25.48
2018-08-19T00:46:23.724Z,25.52
2018-08-19T00:48:52.887Z,25.03
2018-08-19T00:51:21.850Z,25.03
2018-08-19T00:53:50.738Z,24.94
2018-08-19T00:56:19.588Z,25.11
2018-08-19T00:58:48.407Z,25.04
2018-08-19T01:01:29.650Z,25.08
2018-08-19T01:03:59.334Z,25.10
2018-08-19T01:06:28.457Z,24.91
2018-08-19T01:08:58.282Z,24.97
2018-08-19T01:11:33.805Z,24.86
2018-08-19T01:14:03.236Z,24.72
2018-08-19T01:16:32.113Z,24.69
2018-08-19T01:19:02.128Z,24.67
2018-08-19T01:21:32.281Z,25.00
2018-08-19T01:24:02.468Z,25.08
2018-08-19T01:26:35.807Z,25.14
2018-08-19T01:29:05.728Z,25.17
2018-08-19T01:31:34.633Z,25.19
2018-08-19T01:34:07.306Z,25.33
2018-08-19T01:36:36.338Z,25.37
2018-08-19T01:39:08.117Z,25.42
2018-08-19T01:41:37.716Z,25.41
2018-08-19T01:44:14.240Z,25.47
2018-08-19T01:46:52.189Z,25.32
2018-08-19T01:49:20.976Z,25.23
2018-08-19T01:51:49.752Z,25.22
2018-08-19T01:54:22.618Z,25.25
2018-08-19T01:57:00.196Z,25.29
2018-08-19T01:59:32.193Z,25.28
2018-08-19T02:02:06.762Z,25.31
2018-08-19T02:04:43.350Z,24.99
2018-08-19T02:07:12.401Z,24.89
2018-08-19T02:09:56.359Z,24.72
2018-08-19T02:12:27.933Z,24.76
2018-08-19T02:14:56.769Z,24.88
2018-08-19T02:17:25.609Z,24.91
2018-08-19T02:19:54.431Z,25.05
2018-08-19T02:22:23.275Z,24.81
2018-08-19T02:24:54.890Z,24.75
2018-08-19T02:27:23.933Z,24.98
2018-08-19T02:29:53.843Z,25.25
2018-08-19T02:32:29.249Z,25.08
2018-08-19T02:34:58.151Z,24.67
2018-08-19T02:37:27.068Z,24.29
2018-08-19T02:39:55.973Z,24.37
2018-08-19T02:42:29.332Z,24.43
2018-08-19T02:45:05.472Z,24.64
2018-08-19T02:47:34.929Z,24.54
2018-08-19T02:50:04.240Z,24.69
2018-08-19T02:52:36.721Z,24.23
2018-08-19T02:55:07.245Z,24.34
2018-08-19T02:57:38.393Z,24.32
2018-08-19T03:00:09.370Z,24.22
2018-08-19T03:02:40.090Z,24.07
2018-08-19T03:05:13.761Z,24.04
2018-08-19T03:07:42.890Z,23.92
2018-08-19T03:10:14.186Z,23.88
2018-08-19T03:12:43.402Z,24.27
2018-08-19T03:15:13.877Z,24.10
2018-08-19T03:17:43.405Z,23.95
2018-08-19T03:20:13.688Z,24.21
2018-08-19T03:22:42.782Z,24.38
2018-08-19T03:25:12.108Z,24.23
2018-08-19T03:27:40.964Z,24.14
2018-08-19T03:30:12.317Z,24.49
2018-08-19T03:32:46.954Z,24.44
2018-08-19T03:35:16.744Z,24.65
2018-08-19T03:37:45.785Z,24.71
2018-08-19T03:40:14.850Z,24.92
2018-08-19T03:42:43.682Z,24.98
2018-08-19T03:45:17.669Z,24.78
2018-08-19T03:47:47.079Z,24.89
2018-08-19T03:50:25.860Z,25.08
2018-08-19T03:52:55.580Z,25.02
2018-08-19T03:55:30.695Z,25.06
2018-08-19T03:58:03.598Z,25.10
2018-08-19T04:00:35.732Z,25.09
2018-08-19T04:03:15.116Z,25.24
2018-08-19T04:05:50.615Z,25.27
2018-08-19T04:08:19.487Z,25.48
2018-08-19T04:10:49.052Z,25.62
2018-08-19T04:13:30.879Z,25.72
2018-08-19T04:16:03.835Z,25.50
2018-08-19T04:18:36.969Z,25.61
2018-08-19T04:21:09.919Z,25.41
2018-08-19T04:23:41.272Z,25.70
2018-08-19T04:26:10.209Z,25.58
2018-08-19T04:28:41.244Z,25.69
2018-08-19T04:31:14.440Z,25.80
2018-08-19T04:33:45.405Z,25.90
2018-08-19T04:36:16.272Z,26.00
2018-08-19T04:38:45.154Z,26.19
2018-08-19T04:41:15.812Z,26.22
2018-08-19T04:43:45.240Z,26.28
2018-08-19T04:46:14.112Z,26.28
2018-08-19T04:48:47.334Z,26.30
2018-08-19T04:51:16.208Z,26.48
2018-08-19T04:53:45.104Z,26.59
2018-08-19T04:56:15.314Z,26.48
2018-08-19T04:58:44.095Z,26.47
2018-08-19T05:01:13.606Z,26.60
2018-08-19T05:03:46.073Z,26.74
2018-08-19T05:06:15.125Z,26.63
2018-08-19T05:08:44.037Z,26.39
2018-08-19T05:11:12.910Z,26.57
2018-08-19T05:13:41.763Z,26.43
2018-08-19T05:16:10.648Z,26.27
2018-08-19T05:18:39.568Z,26.16
2018-08-19T05:21:16.283Z,26.18
2018-08-19T05:23:45.771Z,26.42
2018-08-19T05:26:14.788Z,26.59
2018-08-19T05:28:49.412Z,26.63
2018-08-19T05:31:18.211Z,26.47
2018-08-19T05:33:47.009Z,26.84
2018-08-19T05:36:17.454Z,26.79
2018-08-19T05:38:46.723Z,26.85
2018-08-19T05:41:15.545Z,26.88
2018-08-19T05:43:45.765Z,27.03
2018-08-19T05:46:14.579Z,27.07
2018-08-19T05:48:43.574Z,26.96
2018-08-19T05:51:13.675Z,27.28
2018-08-19T05:53:49.398Z,27.37
2018-08-19T05:56:19.474Z,27.43
2018-08-19T05:58:48.350Z,27.35
2018-08-19T06:01:22.308Z,27.15
2018-08-19T06:03:51.148Z,27.39
2018-08-19T06:06:20.062Z,27.69
2018-08-19T06:08:50.214Z,27.88
2018-08-19T06:11:19.065Z,27.93
2018-08-19T06:13:47.920Z,28.15
2018-08-19T06:16:16.823Z,28.20
2018-08-19T06:18:45.664Z,28.31
2018-08-19T06:21:14.498Z,28.36
2018-08-19T06:23:43.402Z,28.57
2018-08-19T06:26:13.108Z,28.67
2018-08-19T06:28:41.925Z,28.77
2018-08-19T06:31:10.934Z,28.94
2018-08-19T06:33:39.716Z,28.92
2018-08-19T06:36:09.185Z,28.60
2018-08-19T06:38:39.425Z,28.78
2018-08-19T06:41:08.275Z,28.60
2018-08-19T06:43:37.081Z,28.77
2018-08-19T06:46:05.956Z,29.02
2018-08-19T06:48:34.758Z,29.00
2018-08-19T06:51:04.843Z,28.87
2018-08-19T06:53:35.084Z,28.91
2018-08-19T06:56:03.903Z,29.06
2018-08-19T06:58:32.722Z,29.12
2018-08-19T07:01:03.689Z,29.19
2018-08-19T07:03:32.794Z,29.31
2018-08-19T07:06:10.508Z,29.61
2018-08-19T07:08:39.459Z,29.61
2018-08-19T07:11:08.293Z,29.61
2018-08-19T07:13:38.414Z,29.64
2018-08-19T07:16:07.340Z,29.41
2018-08-19T07:18:36.313Z,29.75
2018-08-19T07:21:05.732Z,29.63
2018-08-19T07:23:34.578Z,29.58
2018-08-19T07:26:03.491Z,29.81
2018-08-19T07:28:33.670Z,29.88
2018-08-19T07:31:02.516Z,29.87
2018-08-19T07:33:31.331Z,29.92
2018-08-19T07:36:01.597Z,29.90
2018-08-19T07:38:30.400Z,29.96
2018-08-19T07:40:59.187Z,30.09
2018-08-19T07:43:28.117Z,29.99
2018-08-19T07:45:56.970Z,30.09
2018-08-19T07:48:25.794Z,29.92
2018-08-19T07:50:55.917Z,29.98
2018-08-19T07:53:24.743Z,30.02
2018-08-19T07:55:53.569Z,30.10
2018-08-19T07:58:34.628Z,30.21
2018-08-19T08:01:03.461Z,30.21
2018-08-19T08:03:32.272Z,30.20
2018-08-19T08:06:02.400Z,30.18
2018-08-19T08:08:32.542Z,30.23
2018-08-19T08:11:01.389Z,30.33
2018-08-19T08:13:30.229Z,30.43
2018-08-19T08:15:59.155Z,30.43
2018-08-19T08:18:27.979Z,30.63
2018-08-19T08:21:09.332Z,30.77
2018-08-19T08:23:39.403Z,30.62
2018-08-19T08:26:08.316Z,30.66
2018-08-19T08:28:37.243Z,30.68
2018-08-19T08:31:09.567Z,30.74
2018-08-19T08:33:40.346Z,30.80
2018-08-19T08:36:10.299Z,30.98
2018-08-19T08:38:39.432Z,30.95
2018-08-19T08:41:08.278Z,30.81
2018-08-19T08:43:38.541Z,31.00
2018-08-19T08:46:07.401Z,31.09
2018-08-19T08:48:36.594Z,31.07
2018-08-19T08:51:05.499Z,31.10
2018-08-19T08:53:38.220Z,31.00
2018-08-19T08:56:08.929Z,31.04
2018-08-19T08:58:37.822Z,31.26
2018-08-19T09:01:06.699Z,31.19
2018-08-19T09:03:35.628Z,31.32
2018-08-19T09:06:04.993Z,31.41
2018-08-19T09:08:33.870Z,31.26
2018-08-19T09:11:04.212Z,31.09
2018-08-19T09:13:34.281Z,31.28
2018-08-19T09:16:03.084Z,31.61
2018-08-19T09:18:31.932Z,31.63
2018-08-19T09:21:00.817Z,31.49
2018-08-19T09:23:29.756Z,31.45
2018-08-19T09:25:58.533Z,31.51
2018-08-19T09:28:27.375Z,31.55
2018-08-19T09:30:56.178Z,31.39
2018-08-19T09:33:24.970Z,31.35
2018-08-19T09:35:53.818Z,31.68
2018-08-19T09:38:23.709Z,31.68
2018-08-19T09:40:53.026Z,31.70
2018-08-19T09:43:21.800Z,31.84
2018-08-19T09:45:50.632Z,31.81
2018-08-19T09:48:19.558Z,31.82
2018-08-19T09:50:48.464Z,31.99
2018-08-19T09:53:17.329Z,32.23
2018-08-19T09:56:17.280Z,32.31
2018-08-19T09:58:50.187Z,32.38
2018-08-19T10:01:51.371Z,32.34
2018-08-19T10:04:23.122Z,32.27
2018-08-19T10:07:17.735Z,32.36
2018-08-19T10:09:47.802Z,32.18
2018-08-19T10:12:17.329Z,32.16
2018-08-19T10:14:46.112Z,32.17
2018-08-19T10:17:15.000Z,32.16
2018-08-19T10:19:43.804Z,32.29
2018-08-19T10:22:12.682Z,32.11
2018-08-19T10:24:41.515Z,32.40
2018-08-19T10:27:10.515Z,32.62
2018-08-19T10:29:39.353Z,32.60
2018-08-19T10:32:08.228Z,32.64
2018-08-19T10:34:37.713Z,32.73
2018-08-19T10:37:08.261Z,32.88
2018-08-19T10:39:37.064Z,33.02
2018-08-19T10:42:19.166Z,32.74
2018-08-19T10:44:50.442Z,32.98
2018-08-19T10:47:20.296Z,32.60
2018-08-19T10:49:58.401Z,32.77
2018-08-19T10:52:28.730Z,32.60
2018-08-19T10:54:59.047Z,32.73
2018-08-19T10:57:29.234Z,32.74
2018-08-19T10:59:59.256Z,32.94
2018-08-19T11:02:28.128Z,33.06
2018-08-19T11:04:59.226Z,32.86
2018-08-19T11:07:28.177Z,32.88
2018-08-19T11:10:13.240Z,32.86
2018-08-19T11:12:42.063Z,32.37
2018-08-19T11:15:26.134Z,32.52
2018-08-19T11:17:54.993Z,32.37
2018-08-19T11:20:28.975Z,32.32
2018-08-19T11:22:58.915Z,32.34
2018-08-19T11:25:28.520Z,32.39
2018-08-19T11:27:58.057Z,32.32
2018-08-19T11:30:26.900Z,32.45
2018-08-19T11:32:55.727Z,32.40
2018-08-19T11:35:33.685Z,32.64
2018-08-19T11:38:02.577Z,32.59
2018-08-19T11:40:31.368Z,32.29
2018-08-19T11:43:00.224Z,32.18
2018-08-19T11:45:29.010Z,32.22
2018-08-19T11:48:03.208Z,32.23
2018-08-19T11:50:32.094Z,32.11
2018-08-19T11:53:00.964Z,31.99
2018-08-19T11:55:29.843Z,31.95
2018-08-19T11:57:58.674Z,31.95
2018-08-19T12:00:31.601Z,32.01
2018-08-19T12:03:00.759Z,32.03
2018-08-19T12:05:29.625Z,31.92
2018-08-19T12:08:01.000Z,32.21
2018-08-19T12:10:29.844Z,31.91
2018-08-19T12:13:00.092Z,32.36
2018-08-19T12:15:28.873Z,32.14
2018-08-19T12:17:57.669Z,31.84
2018-08-19T12:20:34.553Z,32.18
2018-08-19T12:23:03.393Z,32.07
2018-08-19T12:25:32.214Z,31.55
2018-08-19T12:28:01.089Z,31.61
2018-08-19T12:30:32.421Z,31.59
2018-08-19T12:33:12.280Z,31.59
2018-08-19T12:35:42.535Z,31.93
2018-08-19T12:38:16.825Z,32.12
2018-08-19T12:40:48.081Z,32.77
2018-08-19T12:43:16.958Z,32.83
2018-08-19T12:45:46.172Z,33.02
2018-08-19T12:48:15.040Z,33.69
2018-08-19T12:51:05.281Z,33.95
2018-08-19T12:53:36.559Z,33.92
2018-08-19T12:56:05.417Z,33.94
2018-08-19T12:58:34.217Z,35.14
2018-08-19T13:01:03.096Z,35.10
2018-08-19T13:03:31.929Z,35.07
2018-08-19T13:06:08.556Z,34.96
2018-08-19T13:08:37.369Z,34.71
2018-08-19T13:11:07.604Z,34.89
2018-08-19T13:13:36.476Z,35.29
2018-08-19T13:16:05.244Z,35.28
2018-08-19T13:18:40.324Z,34.20
2018-08-19T13:21:14.220Z,34.08
2018-08-19T13:23:43.153Z,33.24
2018-08-19T13:26:11.992Z,32.96
2018-08-19T13:28:44.457Z,33.70
2018-08-19T13:31:15.712Z,32.91
2018-08-19T13:33:44.599Z,31.80
2018-08-19T13:36:13.425Z,33.06
2018-08-19T13:38:42.290Z,33.47
2018-08-19T13:41:11.233Z,33.07
2018-08-19T13:43:40.043Z,33.82
2018-08-19T13:46:10.295Z,33.85
2018-08-19T13:48:39.081Z,35.19
2018-08-19T13:51:08.163Z,35.27
2018-08-19T13:53:37.023Z,34.37
2018-08-19T13:56:05.825Z,33.74
2018-08-19T13:58:34.693Z,33.12
2018-08-19T14:01:03.605Z,32.15
2018-08-19T14:03:32.440Z,31.53
2018-08-19T14:06:01.470Z,31.40
2018-08-19T14:08:30.320Z,31.51
2018-08-19T14:10:59.204Z,31.52
2018-08-19T14:13:28.004Z,31.23
2018-08-19T14:15:58.098Z,30.88
2018-08-19T14:18:26.897Z,30.81
2018-08-19T14:20:55.701Z,30.81
2018-08-19T14:23:24.559Z,30.32
2018-08-19T14:25:53.502Z,30.53
2018-08-19T14:28:23.205Z,30.39
2018-08-19T14:30:52.274Z,30.38
2018-08-19T14:33:20.980Z,30.21
2018-08-19T14:35:49.776Z,30.36
2018-08-19T14:38:18.576Z,30.35
2018-08-19T14:40:47.448Z,30.11
2018-08-19T14:43:16.268Z,30.26
2018-08-19T14:45:45.148Z,30.38
2018-08-19T14:48:13.994Z,30.28
2018-08-19T14:50:45.743Z,30.06
2018-08-19T14:53:14.620Z,29.98
2018-08-19T14:55:43.438Z,29.85
2018-08-19T14:58:13.725Z,29.99
2018-08-19T15:00:42.541Z,30.12
2018-08-19T15:03:11.365Z,30.06
2018-08-19T15:05:40.362Z,30.04
2018-08-19T15:08:23.520Z,30.24
2018-08-19T15:10:56.426Z,30.35
2018-08-19T15:13:25.281Z,30.38
2018-08-19T15:15:54.089Z,30.36
2018-08-19T15:18:22.861Z,30.47
2018-08-19T15:20:51.681Z,30.21
2018-08-19T15:23:21.332Z,30.00
2018-08-19T15:25:50.266Z,29.86
2018-08-19T15:28:19.395Z,29.68
2018-08-19T15:30:48.297Z,29.61
2018-08-19T15:33:17.503Z,29.32
2018-08-19T15:35:46.237Z,29.24
2018-08-19T15:38:16.412Z,29.13
2018-08-19T15:40:47.654Z,29.11
2018-08-19T15:43:16.531Z,28.91
2018-08-19T15:45:47.046Z,28.85
2018-08-19T15:48:15.922Z,28.93
2018-08-19T15:50:44.815Z,28.89
2018-08-19T15:53:13.750Z,28.87
2018-08-19T15:55:42.589Z,28.85
2018-08-19T15:58:11.460Z,28.82
2018-08-19T16:00:41.698Z,28.74
2018-08-19T16:03:12.708Z,28.76
2018-08-19T16:05:41.545Z,28.71
2018-08-19T16:08:11.716Z,28.71
2018-08-19T16:10:41.984Z,28.76
2018-08-19T16:13:11.936Z,28.81
2018-08-19T16:15:40.828Z,28.83
2018-08-19T16:18:09.855Z,28.82
2018-08-19T16:20:38.701Z,28.68
2018-08-19T16:23:08.976Z,28.74
2018-08-19T16:25:37.797Z,28.75
2018-08-19T16:28:06.803Z,28.59
2018-08-19T16:30:35.777Z,28.54
2018-08-19T16:33:04.622Z,28.43
2018-08-19T16:35:33.572Z,28.25
2018-08-19T16:38:03.820Z,28.08
2018-08-19T16:40:32.906Z,28.07
2018-08-19T16:43:01.792Z,27.98
2018-08-19T16:45:30.718Z,28.05
2018-08-19T16:47:59.607Z,27.97
2018-08-19T16:50:28.593Z,28.02
2018-08-19T16:52:57.409Z,27.93
2018-08-19T16:55:26.270Z,27.96
2018-08-19T16:57:55.202Z,27.82
2018-08-19T17:00:24.094Z,27.81
2018-08-19T17:02:53.870Z,27.77
2018-08-19T17:05:32.552Z,27.68
2018-08-19T17:08:01.404Z,27.63
2018-08-19T17:10:30.597Z,27.65
2018-08-19T17:12:59.633Z,27.59
2018-08-19T17:15:28.809Z,27.59
2018-08-19T17:17:57.769Z,27.51
2018-08-19T17:20:27.820Z,27.49
2018-08-19T17:22:56.636Z,27.48
2018-08-19T17:25:25.473Z,27.42
2018-08-19T17:27:54.336Z,27.45
2018-08-19T17:30:23.223Z,27.40
2018-08-19T17:32:59.695Z,27.37
2018-08-19T17:35:28.560Z,27.31
2018-08-19T17:37:57.454Z,27.26
2018-08-19T17:40:26.405Z,27.24
2018-08-19T17:42:56.544Z,27.23
2018-08-19T17:45:25.495Z,27.12
2018-08-19T17:47:54.736Z,27.10
2018-08-19T17:50:28.860Z,27.06
2018-08-19T17:52:59.167Z,27.07
2018-08-19T17:55:28.177Z,26.95
2018-08-19T17:57:58.561Z,26.98
2018-08-19T18:00:27.413Z,26.93
2018-08-19T18:02:57.525Z,26.80
2018-08-19T18:05:27.860Z,26.86
2018-08-19T18:07:56.946Z,26.94
2018-08-19T18:10:25.875Z,26.78
2018-08-19T18:12:54.761Z,26.74
2018-08-19T18:15:23.650Z,26.70
2018-08-19T18:18:02.941Z,26.66
2018-08-19T18:20:39.166Z,26.64
2018-08-19T18:23:14.984Z,26.53
2018-08-19T18:25:47.798Z,26.42
2018-08-19T18:28:22.685Z,26.40
2018-08-19T18:31:07.989Z,26.54
2018-08-19T18:33:50.959Z,26.47
2018-08-19T18:36:21.290Z,26.33
2018-08-19T18:38:50.270Z,26.40
2018-08-19T18:41:25.276Z,26.33
2018-08-19T18:44:00.976Z,26.32
2018-08-19T18:46:30.127Z,26.33
2018-08-19T18:49:19.560Z,26.26
2018-08-19T18:51:50.733Z,26.19
2018-08-19T18:54:30.573Z,26.20
2018-08-19T18:57:00.537Z,26.23
2018-08-19T18:59:29.524Z,26.21
2018-08-19T19:02:00.526Z,26.17
2018-08-19T19:04:29.536Z,26.15
2018-08-19T19:06:58.415Z,26.03
2018-08-19T19:09:37.300Z,25.91
2018-08-19T19:12:06.180Z,25.83
2018-08-19T19:14:35.172Z,25.84
2018-08-19T19:17:03.991Z,25.76
2018-08-19T19:19:36.859Z,25.79
2018-08-19T19:22:05.782Z,25.75
2018-08-19T19:24:40.324Z,25.89
2018-08-19T19:27:09.849Z,25.72
2018-08-19T19:29:38.635Z,25.79
2018-08-19T19:32:16.397Z,25.67
2018-08-19T19:34:45.205Z,25.69
2018-08-19T19:37:14.197Z,25.74
2018-08-19T19:39:43.089Z,25.71
2018-08-19T19:42:13.022Z,25.72
2018-08-19T19:44:41.850Z,25.81
2018-08-19T19:47:11.046Z,25.79
2018-08-19T19:49:48.126Z,25.68
2018-08-19T19:52:18.380Z,25.59
2018-08-19T19:54:47.170Z,25.68
2018-08-19T19:57:15.992Z,25.55
2018-08-19T19:59:46.302Z,25.67
2018-08-19T20:02:19.292Z,25.63
2018-08-19T20:04:49.405Z,25.62
2018-08-19T20:07:18.267Z,25.53
2018-08-19T20:09:47.164Z,25.63
2018-08-19T20:12:30.564Z,25.54
2018-08-19T20:15:01.633Z,25.56
2018-08-19T20:17:30.538Z,25.20
2018-08-19T20:19:59.437Z,24.92
2018-08-19T20:22:28.352Z,25.00
2018-08-19T20:24:57.200Z,25.16
2018-08-19T20:27:26.134Z,25.07
2018-08-19T20:29:55.407Z,25.33
2018-08-19T20:32:24.375Z,25.25
2018-08-19T20:34:53.195Z,25.32
2018-08-19T20:37:25.902Z,25.39
2018-08-19T20:39:55.276Z,25.14
2018-08-19T20:42:24.324Z,25.19
2018-08-19T20:44:53.276Z,25.29
2018-08-19T20:47:22.105Z,25.28
2018-08-19T20:49:51.307Z,25.31
2018-08-19T20:52:29.662Z,25.24
2018-08-19T20:54:58.548Z,25.19
2018-08-19T20:57:27.400Z,25.29
2018-08-19T20:59:56.260Z,25.28
2018-08-19T21:02:25.091Z,25.21
2018-08-19T21:04:54.740Z,25.28
2018-08-19T21:07:23.645Z,25.32
2018-08-19T21:09:52.501Z,25.35
2018-08-19T21:12:21.390Z,25.37
2018-08-19T21:14:50.294Z,25.52
2018-08-19T21:17:19.196Z,25.43
2018-08-19T21:19:48.152Z,25.28
2018-08-19T21:22:18.320Z,25.40
2018-08-19T21:24:47.197Z,25.33
2018-08-19T21:27:17.465Z,25.38
2018-08-19T21:29:46.407Z,25.37
2018-08-19T21:32:15.199Z,25.24
2018-08-19T21:34:44.065Z,25.20
2018-08-19T21:37:14.952Z,25.20
2018-08-19T21:39:43.865Z,25.09
2018-08-19T21:42:12.685Z,25.10
2018-08-19T21:44:41.516Z,25.10
2018-08-19T21:47:10.396Z,25.06
2018-08-19T21:49:39.464Z,25.14
2018-08-19T21:52:08.294Z,25.04
2018-08-19T21:54:37.129Z,24.84
2018-08-19T21:57:05.995Z,24.91
2018-08-19T21:59:35.074Z,24.91
2018-08-19T22:02:04.009Z,24.58
2018-08-19T22:04:33.050Z,24.41
2018-08-19T22:07:02.057Z,24.41
2018-08-19T22:09:36.786Z,24.33
2018-08-19T22:12:06.986Z,24.22
2018-08-19T22:14:35.841Z,24.06
2018-08-19T22:17:09.926Z,24.00
2018-08-19T22:19:40.591Z,23.95
2018-08-19T22:22:09.925Z,23.90
2018-08-19T22:24:38.838Z,23.88
2018-08-19T22:27:12.889Z,23.83
2018-08-19T22:29:41.701Z,23.74
2018-08-19T22:32:10.584Z,23.72
2018-08-19T22:34:39.432Z,23.65
2018-08-19T22:37:08.350Z,23.60
2018-08-19T22:39:37.272Z,23.57
2018-08-19T22:42:06.148Z,23.49
2018-08-19T22:44:34.933Z,23.41
2018-08-19T22:47:03.754Z,23.44
2018-08-19T22:49:32.600Z,23.46
2018-08-19T22:52:09.585Z,23.47
2018-08-19T22:54:38.439Z,23.38
2018-08-19T22:57:07.348Z,23.36
2018-08-19T22:59:36.149Z,23.26
2018-08-19T23:02:05.007Z,23.28
2018-08-19T23:04:33.836Z,23.23
2018-08-19T23:07:02.773Z,23.25
2018-08-19T23:09:31.612Z,23.09
2018-08-19T23:12:00.488Z,22.81
2018-08-19T23:14:40.164Z,22.72
2018-08-19T23:17:10.723Z,22.68
2018-08-19T23:19:39.539Z,22.59
2018-08-19T23:22:08.388Z,22.46
2018-08-19T23:24:37.274Z,22.48
2018-08-19T23:27:06.110Z,22.46
2018-08-19T23:29:34.934Z,22.49
2018-08-19T23:32:04.874Z,22.48
2018-08-19T23:34:33.772Z,22.58
2018-08-19T23:37:02.716Z,22.54
2018-08-19T23:39:31.559Z,22.58
2018-08-19T23:42:00.469Z,22.58
2018-08-19T23:44:29.350Z,22.63
2018-08-19T23:46:58.233Z,22.74
2018-08-19T23:49:32.055Z,22.78
2018-08-19T23:52:00.975Z,22.85
2018-08-19T23:54:29.841Z,22.85
2018-08-19T23:56:58.661Z,22.85
2018-08-19T23:59:31.561Z,22.98
